createdAt,value
2019-03-18T00:01:48.012Z,1.40
2019-03-18T00:06:51.745Z,1.30
2019-03-18T00:11:55.423Z,1.20
2019-03-18T00:16:59.080Z,1.30
2019-03-18T00:22:02.748Z,1.40
2019-03-18T00:27:06.427Z,1.70
2019-03-18T00:32:10.107Z,1.50
2019-03-18T00:37:14.156Z,1.40
2019-03-18T00:42:17.879Z,1.77
2019-03-18T00:47:21.599Z,1.60
2019-03-18T00:52:25.278Z,1.63
2019-03-18T00:57:28.954Z,1.80
2019-03-18T01:02:32.638Z,1.60
2019-03-18T01:07:36.385Z,1.87
2019-03-18T01:12:40.096Z,1.80
2019-03-18T01:17:43.779Z,1.70
2019-03-18T01:22:47.475Z,1.90
2019-03-18T01:27:51.150Z,2.20
2019-03-18T01:32:54.889Z,2.13
2019-03-18T01:37:58.581Z,2.07
2019-03-18T01:43:02.541Z,2.33
2019-03-18T01:48:06.237Z,2.40
2019-03-18T01:53:09.955Z,2.40
2019-03-18T01:58:13.640Z,2.67
2019-03-18T02:03:17.341Z,2.80
2019-03-18T02:08:21.049Z,2.80
2019-03-18T02:13:24.737Z,2.80
2019-03-18T02:18:28.428Z,2.90
2019-03-18T02:23:32.133Z,2.40
2019-03-18T02:28:36.406Z,2.90
2019-03-18T02:33:40.180Z,3.13
2019-03-18T02:38:43.846Z,3.10
2019-03-18T02:43:47.545Z,3.20
2019-03-18T02:48:51.671Z,3.43
2019-03-18T02:53:55.523Z,3.40
2019-03-18T02:58:59.286Z,3.30
2019-03-18T03:04:02.962Z,3.30
2019-03-18T03:09:07.715Z,3.27
2019-03-18T03:14:11.455Z,3.57
2019-03-18T03:19:15.126Z,3.73
2019-03-18T03:24:18.795Z,3.47
2019-03-18T03:29:22.581Z,4.00
2019-03-18T03:34:26.270Z,3.90
2019-03-18T03:39:29.983Z,3.67
2019-03-18T03:44:33.676Z,4.03
2019-03-18T03:49:37.443Z,3.90
2019-03-18T03:54:41.554Z,3.70
2019-03-18T03:59:45.235Z,4.10
2019-03-18T04:04:48.948Z,3.40
2019-03-18T04:09:52.717Z,3.97
2019-03-18T04:14:56.415Z,4.07
2019-03-18T04:20:00.116Z,3.93
2019-03-18T04:25:04.261Z,3.57
2019-03-18T04:30:08.361Z,3.97
2019-03-18T04:35:12.189Z,3.70
2019-03-18T04:40:15.862Z,3.83
2019-03-18T04:45:19.538Z,3.67
2019-03-18T04:50:23.218Z,4.10
2019-03-18T04:55:26.889Z,4.13
2019-03-18T05:00:30.557Z,4.43
2019-03-18T05:05:34.536Z,4.10
2019-03-18T05:10:38.230Z,3.63
2019-03-18T05:15:42.395Z,3.73
2019-03-18T05:20:46.147Z,3.97
2019-03-18T05:25:50.146Z,3.80
2019-03-18T05:30:53.828Z,3.80
2019-03-18T05:35:57.501Z,3.80
2019-03-18T05:41:01.194Z,3.73
2019-03-18T05:46:04.874Z,4.07
2019-03-18T05:51:08.580Z,3.80
2019-03-18T05:56:12.364Z,3.83
2019-03-18T06:01:16.033Z,4.27
2019-03-18T06:06:19.709Z,3.90
2019-03-18T06:11:23.734Z,3.80
2019-03-18T06:16:27.763Z,4.03
2019-03-18T06:21:31.505Z,3.30
2019-03-18T06:26:35.534Z,3.50
2019-03-18T06:31:39.220Z,3.70
2019-03-18T06:36:44.050Z,4.10
2019-03-18T06:41:49.701Z,4.10
2019-03-18T06:46:53.169Z,3.50
2019-03-18T06:51:56.835Z,3.90
2019-03-18T06:57:00.942Z,3.60
2019-03-18T07:02:04.604Z,3.73
2019-03-18T07:07:08.568Z,3.80
2019-03-18T07:12:12.221Z,3.73
2019-03-18T07:17:15.913Z,3.70
2019-03-18T07:22:19.820Z,3.30
2019-03-18T07:27:23.755Z,3.87
2019-03-18T07:32:27.538Z,3.70
2019-03-18T07:37:31.447Z,3.53
2019-03-18T07:42:35.440Z,3.07
2019-03-18T07:47:39.370Z,3.60
2019-03-18T07:52:43.294Z,3.57
2019-03-18T07:57:46.956Z,3.30
2019-03-18T08:02:50.617Z,3.20
2019-03-18T08:07:54.293Z,3.60
2019-03-18T08:12:58.130Z,3.13
2019-03-18T08:18:01.800Z,3.40
2019-03-18T08:23:05.843Z,3.13
2019-03-18T08:28:09.572Z,3.20
2019-03-18T08:33:13.236Z,2.97
2019-03-18T08:38:16.889Z,2.87
2019-03-18T08:43:20.580Z,2.90
2019-03-18T08:48:24.243Z,2.90
2019-03-18T08:53:28.216Z,2.70
2019-03-18T08:58:31.901Z,2.70
2019-03-18T09:03:35.597Z,3.17
2019-03-18T09:08:39.260Z,2.77
2019-03-18T09:13:42.925Z,3.07
2019-03-18T09:18:46.595Z,2.60
2019-03-18T09:23:50.269Z,2.67
2019-03-18T09:28:53.921Z,2.53
2019-03-18T09:33:57.628Z,2.53
2019-03-18T09:39:01.554Z,2.20
2019-03-18T09:44:05.269Z,2.70
2019-03-18T09:49:20.599Z,2.73
2019-03-18T09:54:14.363Z,2.30
2019-03-18T09:59:18.982Z,2.17
2019-03-18T10:04:22.777Z,2.43
2019-03-18T10:09:26.535Z,4.20
2019-03-18T10:14:30.661Z,2.67
2019-03-18T10:19:34.353Z,3.07
2019-03-18T10:24:38.335Z,2.17
2019-03-18T10:29:42.449Z,2.67
2019-03-18T10:34:46.376Z,2.20
2019-03-18T10:39:50.050Z,2.93
2019-03-18T10:44:53.805Z,5.97
2019-03-18T10:49:57.472Z,2.43
2019-03-18T10:55:01.134Z,2.43
2019-03-18T11:00:05.677Z,2.10
2019-03-18T11:05:09.796Z,2.20
2019-03-18T11:10:13.726Z,1.80
2019-03-18T11:15:17.793Z,2.40
2019-03-18T11:20:22.477Z,2.40
2019-03-18T11:25:26.380Z,2.07
2019-03-18T11:30:30.089Z,2.63
2019-03-18T11:35:33.870Z,2.23
2019-03-18T11:40:37.644Z,2.27
2019-03-18T11:45:41.330Z,2.17
2019-03-18T11:50:45.091Z,2.33
2019-03-18T11:55:48.956Z,2.23
2019-03-18T12:00:57.078Z,2.40
2019-03-18T12:06:00.851Z,2.13
2019-03-18T12:11:04.720Z,2.13
2019-03-18T12:16:08.418Z,2.20
2019-03-18T12:21:12.321Z,3.73
2019-03-18T12:26:15.989Z,2.57
2019-03-18T12:31:20.381Z,2.33
2019-03-18T12:36:24.376Z,2.00
2019-03-18T12:41:29.654Z,2.37
2019-03-18T12:46:33.450Z,2.30
2019-03-18T12:51:37.172Z,2.00
2019-03-18T12:56:40.842Z,2.30
2019-03-18T13:01:47.998Z,2.03
2019-03-18T13:06:51.908Z,2.20
2019-03-18T13:11:55.921Z,2.13
2019-03-18T13:16:59.582Z,2.03
2019-03-18T13:22:03.289Z,5.13
2019-03-18T13:27:07.029Z,1.93
2019-03-18T13:32:10.717Z,2.10
2019-03-18T13:37:14.414Z,2.10
2019-03-18T13:42:18.091Z,2.07
2019-03-18T13:47:21.814Z,1.73
2019-03-18T13:52:25.506Z,1.40
2019-03-18T13:57:29.169Z,1.50
2019-03-18T14:02:32.865Z,1.67
2019-03-18T14:07:36.562Z,2.00
2019-03-18T14:12:40.311Z,1.73
2019-03-18T14:17:44.076Z,2.23
2019-03-18T14:22:47.729Z,2.43
2019-03-18T14:27:51.403Z,2.57
2019-03-18T14:32:55.081Z,2.43
2019-03-18T14:37:59.443Z,2.30
2019-03-18T14:43:07.275Z,2.53
2019-03-18T14:48:11.018Z,1.90
2019-03-18T14:53:14.956Z,1.90
2019-03-18T14:58:20.987Z,2.30
2019-03-18T15:03:24.959Z,1.60
2019-03-18T15:08:30.017Z,1.00
2019-03-18T15:13:37.008Z,1.20
2019-03-18T15:18:40.750Z,1.50
2019-03-18T15:23:44.429Z,1.77
2019-03-18T15:28:48.098Z,1.90
2019-03-18T15:33:52.101Z,1.40
2019-03-18T15:38:55.809Z,1.50
2019-03-18T15:43:59.517Z,1.47
2019-03-18T15:49:04.365Z,1.70
2019-03-18T15:54:09.172Z,1.90
2019-03-18T15:59:12.843Z,2.60
2019-03-18T16:04:16.569Z,2.13
2019-03-18T16:09:20.828Z,1.57
2019-03-18T16:14:24.503Z,2.00
2019-03-18T16:19:28.321Z,2.33
2019-03-18T16:24:32.174Z,2.20
2019-03-18T16:29:35.832Z,2.40
2019-03-18T16:34:39.526Z,2.10
2019-03-18T16:39:43.352Z,2.07
2019-03-18T16:44:47.072Z,2.60
2019-03-18T16:49:50.777Z,1.50
2019-03-18T16:54:54.494Z,1.90
2019-03-18T16:59:58.173Z,2.30
2019-03-18T17:05:01.871Z,7.60
2019-03-18T17:10:06.160Z,3.60
2019-03-18T17:15:10.216Z,2.47
2019-03-18T17:20:13.973Z,2.20
2019-03-18T17:25:18.060Z,2.10
2019-03-18T17:30:21.981Z,2.07
2019-03-18T17:35:25.690Z,1.67
2019-03-18T17:40:29.557Z,2.33
2019-03-18T17:45:36.147Z,2.07
2019-03-18T17:50:39.984Z,1.97
2019-03-18T17:55:43.935Z,2.00
2019-03-18T18:00:50.200Z,2.07
2019-03-18T18:05:54.121Z,2.10
2019-03-18T18:10:57.826Z,5.10
2019-03-18T18:16:01.533Z,2.93
2019-03-18T18:21:05.565Z,3.80
2019-03-18T18:26:09.265Z,3.97
2019-03-18T18:31:13.237Z,2.40
2019-03-18T18:36:17.146Z,2.77
2019-03-18T18:41:27.006Z,2.17
2019-03-18T18:46:31.647Z,2.47
2019-03-18T18:51:35.637Z,2.70
2019-03-18T18:56:39.685Z,2.60
2019-03-18T19:01:44.679Z,2.60
2019-03-18T19:06:48.644Z,2.87
2019-03-18T19:11:52.480Z,2.40
2019-03-18T19:16:56.959Z,2.37
2019-03-18T19:22:01.171Z,2.43
2019-03-18T19:27:05.045Z,2.73
2019-03-18T19:32:08.861Z,2.80
2019-03-18T19:37:15.329Z,2.90
2019-03-18T19:42:19.873Z,2.40
2019-03-18T19:47:23.714Z,2.90
2019-03-18T19:52:27.534Z,2.97
2019-03-18T19:57:31.538Z,3.17
2019-03-18T20:02:36.153Z,3.00
2019-03-18T20:07:39.846Z,3.23
2019-03-18T20:12:43.963Z,2.80
2019-03-18T20:17:48.220Z,2.83
2019-03-18T20:22:52.599Z,3.03
2019-03-18T20:27:56.420Z,3.20
2019-03-18T20:33:00.540Z,3.10
2019-03-18T20:38:04.396Z,3.27
2019-03-18T20:43:08.619Z,3.10
2019-03-18T20:48:12.397Z,3.00
2019-03-18T20:53:16.442Z,3.60
2019-03-18T20:58:20.230Z,3.27
2019-03-18T21:03:25.032Z,3.17
2019-03-18T21:08:28.705Z,3.17
2019-03-18T21:13:32.408Z,3.03
2019-03-18T21:18:36.101Z,2.77
2019-03-18T21:23:41.247Z,2.47
2019-03-18T21:28:45.403Z,2.27
2019-03-18T21:33:49.153Z,2.17
2019-03-18T21:38:53.961Z,2.10
2019-03-18T21:43:57.655Z,2.90
2019-03-18T21:49:01.308Z,2.33
2019-03-18T21:54:05.364Z,2.57
2019-03-18T21:59:09.069Z,3.50
2019-03-18T22:04:12.756Z,3.00
2019-03-18T22:09:17.503Z,2.80
2019-03-18T22:14:21.201Z,2.47
2019-03-18T22:19:24.897Z,2.23
2019-03-18T22:24:28.812Z,2.57
2019-03-18T22:29:32.528Z,2.67
2019-03-18T22:34:36.233Z,3.00
2019-03-18T22:39:39.955Z,2.60
2019-03-18T22:44:43.635Z,2.83
2019-03-18T22:49:47.324Z,2.73
2019-03-18T22:54:55.833Z,3.17
2019-03-18T22:59:56.397Z,3.20
2019-03-18T23:05:00.065Z,3.00
2019-03-18T23:10:04.327Z,2.57
2019-03-18T23:15:08.089Z,2.30
2019-03-18T23:20:11.926Z,3.00
2019-03-18T23:25:15.978Z,3.37
2019-03-18T23:30:19.650Z,2.77
2019-03-18T23:35:23.345Z,3.03
2019-03-18T23:40:27.039Z,2.93
2019-03-18T23:45:30.748Z,2.97
2019-03-18T23:50:34.440Z,2.83
2019-03-18T23:55:38.148Z,2.77
